DLH492 EDDF-CYVR
Flight info
| Callsign | DLH492 |
|---|---|
| Flight time | N/A |
| Altitude | 36000 |
| Route | MARUN2G MARUN Y152 ARPEG Z850 ABILU DCT ATPAQ DCT OMIMA DCT ATNAK DCT GUNPA/M085F380 DCT 65N010W 6730N02000W 70N030W 72N040W 73N060W DCT MEDPA/N0493F400 DCT 71N080W 6830N09000W 65N100W 60N110W 55N116W DCT MERYT DCT BOOTH LIONN4 |
| Aircraft | A359/H-SDE2E3GHIJ3J4J5LM1ORWXY/LB1D1 |
Departure
| Time | N/A |
|---|---|
| Airport | Frankfurt Main Airport (EDDF) |
Arrival
| Time | 2026-05-03 20:26 |
|---|---|
| Airport | Vancouver International Airport (CYVR) |
| Time | Latitude | Longitude | Altitude | Speed | Heading |
|---|---|---|---|---|---|
| 2026-05-03 20:15 | 49.45343 | -122.21712 | 11971 ft | 309 kts | 239° |
| 2026-05-03 20:15 | 49.44242 | -122.24490 | 11969 ft | 297 kts | 239° |
| 2026-05-03 20:15 | 49.43192 | -122.27136 | 11972 ft | 286 kts | 239° |
| 2026-05-03 20:15 | 49.42160 | -122.29738 | 11970 ft | 285 kts | 239° |
| 2026-05-03 20:16 | 49.41108 | -122.32385 | 11961 ft | 298 kts | 239° |
| 2026-05-03 20:16 | 49.39956 | -122.35053 | 11963 ft | 307 kts | 233° |
| 2026-05-03 20:16 | 49.38581 | -122.37569 | 11968 ft | 309 kts | 229° |
| 2026-05-03 20:16 | 49.37152 | -122.40022 | 11958 ft | 307 kts | 229° |
| 2026-05-03 20:17 | 49.35762 | -122.42415 | 11507 ft | 296 kts | 229° |
| 2026-05-03 20:17 | 49.34387 | -122.44791 | 10656 ft | 299 kts | 229° |
| 2026-05-03 20:17 | 49.32989 | -122.47168 | 9893 ft | 300 kts | 228° |
| 2026-05-03 20:17 | 49.31595 | -122.49533 | 9161 ft | 296 kts | 228° |
| 2026-05-03 20:18 | 49.30219 | -122.51867 | 8407 ft | 294 kts | 228° |
| 2026-05-03 20:18 | 49.28856 | -122.54182 | 7707 ft | 290 kts | 228° |
| 2026-05-03 20:18 | 49.27520 | -122.56465 | 7084 ft | 288 kts | 228° |
| 2026-05-03 20:18 | 49.26179 | -122.58752 | 6623 ft | 288 kts | 228° |
| 2026-05-03 20:19 | 49.24846 | -122.61024 | 6230 ft | 286 kts | 228° |
| 2026-05-03 20:19 | 49.23523 | -122.63287 | 5818 ft | 284 kts | 228° |
| 2026-05-03 20:19 | 49.22234 | -122.65487 | 5526 ft | 279 kts | 228° |
| 2026-05-03 20:19 | 49.20970 | -122.67709 | 5244 ft | 271 kts | 233° |
| 2026-05-03 20:20 | 49.19947 | -122.70004 | 5049 ft | 252 kts | 238° |
| 2026-05-03 20:20 | 49.19052 | -122.72205 | 4852 ft | 236 kts | 238° |
| 2026-05-03 20:20 | 49.18210 | -122.74296 | 4560 ft | 227 kts | 238° |
| 2026-05-03 20:20 | 49.17389 | -122.76336 | 4165 ft | 223 kts | 238° |
| 2026-05-03 20:21 | 49.16599 | -122.78369 | 3992 ft | 223 kts | 243° |
| 2026-05-03 20:21 | 49.16127 | -122.80609 | 3967 ft | 222 kts | 264° |
| 2026-05-03 20:21 | 49.16190 | -122.82891 | 3991 ft | 208 kts | 279° |
| 2026-05-03 20:21 | 49.16436 | -122.85040 | 3975 ft | 204 kts | 281° |
| 2026-05-03 20:22 | 49.16870 | -122.87101 | 3855 ft | 204 kts | 288° |
| 2026-05-03 20:22 | 49.17173 | -122.89186 | 3562 ft | 204 kts | 280° |
| 2026-05-03 20:22 | 49.17407 | -122.91321 | 3302 ft | 202 kts | 278° |
| 2026-05-03 20:22 | 49.17575 | -122.93461 | 2991 ft | 201 kts | 275° |
| 2026-05-03 20:23 | 49.17701 | -122.95564 | 2737 ft | 196 kts | 276° |
| 2026-05-03 20:23 | 49.17924 | -122.97602 | 2463 ft | 192 kts | 282° |
| 2026-05-03 20:23 | 49.18163 | -122.99581 | 2209 ft | 187 kts | 279° |
| 2026-05-03 20:23 | 49.18375 | -123.01515 | 1962 ft | 180 kts | 279° |
| 2026-05-03 20:24 | 49.18582 | -123.03336 | 1738 ft | 167 kts | 279° |
| 2026-05-03 20:24 | 49.18777 | -123.05052 | 1524 ft | 162 kts | 278° |
| 2026-05-03 20:24 | 49.18974 | -123.06728 | 1312 ft | 156 kts | 279° |
| 2026-05-03 20:24 | 49.19155 | -123.08309 | 1106 ft | 146 kts | 278° |
| 2026-05-03 20:25 | 49.19327 | -123.09795 | 920 ft | 142 kts | 280° |
| 2026-05-03 20:25 | 49.19495 | -123.11269 | 700 ft | 137 kts | 279° |
| 2026-05-03 20:25 | 49.19653 | -123.12675 | 515 ft | 130 kts | 281° |
| 2026-05-03 20:25 | 49.19819 | -123.14029 | 320 ft | 128 kts | 283° |
| 2026-05-03 20:26 | 49.19977 | -123.15374 | 179 ft | 129 kts | 280° |
| 2026-05-03 20:26 | 49.20132 | -123.16710 | 28 ft | 124 kts | 282° |
| 2026-05-03 20:26 | 49.20262 | -123.17853 | 13 ft | 89 kts | 278° |
| 2026-05-03 20:26 | 49.20340 | -123.18574 | 18 ft | 49 kts | 277° |
| 2026-05-03 20:27 | 49.20380 | -123.18882 | 20 ft | 43 kts | 281° |
| 2026-05-03 20:27 | 49.20379 | -123.19245 | 14 ft | 31 kts | 253° |
| 2026-05-03 20:27 | 49.20319 | -123.19503 | 15 ft | 24 kts | 249° |
| 2026-05-03 20:27 | 49.20251 | -123.19563 | 17 ft | 9 kts | 117° |
| 2026-05-03 20:28 | 49.20238 | -123.19496 | 16 ft | 11 kts | 104° |
| 2026-05-03 20:28 | 49.20223 | -123.19364 | 16 ft | 14 kts | 99° |
| 2026-05-03 20:28 | 49.20204 | -123.19199 | 16 ft | 17 kts | 100° |
| 2026-05-03 20:28 | 49.20180 | -123.19001 | 16 ft | 20 kts | 99° |
| 2026-05-03 20:29 | 49.20154 | -123.18775 | 17 ft | 23 kts | 100° |
| 2026-05-03 20:29 | 49.20133 | -123.18578 | 16 ft | 15 kts | 99° |
| 2026-05-03 20:29 | 49.20097 | -123.18509 | 16 ft | 7 kts | 163° |
| 2026-05-03 20:29 | 49.20050 | -123.18458 | 17 ft | 10 kts | 121° |
| 2026-05-03 20:30 | 49.20033 | -123.18342 | 16 ft | 13 kts | 101° |
| 2026-05-03 20:30 | 49.20018 | -123.18259 | 16 ft | 6 kts | 123° |
| 2026-05-03 20:30 | 49.19998 | -123.18248 | 16 ft | 4 kts | 173° |
| 2026-05-03 20:30 | 49.19969 | -123.18253 | 16 ft | 5 kts | 187° |
| 2026-05-03 20:31 | 49.19961 | -123.18255 | 17 ft | 0 kts | 188° |